地図

経路データ

SID SEASON NUMBER BASIN SUBBASIN NAME ISO_TIME NATURE LAT LON WMO_WIND WMO_PRES WMO_AGENCY TRACK_TYPE DIST2LAND LANDFALL IFLAG USA_AGENCY USA_ATCF_ID USA_LAT USA_LON USA_RECORD USA_STATUS USA_WIND USA_PRES USA_SSHS USA_R34_NE USA_R34_SE USA_R34_SW USA_R34_NW USA_R50_NE USA_R50_SE USA_R50_SW USA_R50_NW USA_R64_NE USA_R64_SE USA_R64_SW USA_R64_NW USA_POCI USA_ROCI USA_RMW USA_EYE TOKYO_LAT TOKYO_LON TOKYO_GRADE TOKYO_WIND TOKYO_PRES TOKYO_R50_DIR TOKYO_R50_LONG TOKYO_R50_SHORT TOKYO_R30_DIR TOKYO_R30_LONG TOKYO_R30_SHORT TOKYO_LAND CMA_LAT CMA_LON CMA_CAT CMA_WIND CMA_PRES HKO_LAT HKO_LON HKO_CAT HKO_WIND HKO_PRES NEWDELHI_LAT NEWDELHI_LON NEWDELHI_GRADE NEWDELHI_WIND NEWDELHI_PRES NEWDELHI_CI NEWDELHI_DP NEWDELHI_POCI REUNION_LAT REUNION_LON REUNION_TYPE REUNION_WIND REUNION_PRES REUNION_TNUM REUNION_CI REUNION_RMW REUNION_R34_NE REUNION_R34_SE REUNION_R34_SW REUNION_R34_NW REUNION_R50_NE REUNION_R50_SE REUNION_R50_SW REUNION_R50_NW REUNION_R64_NE REUNION_R64_SE REUNION_R64_SW REUNION_R64_NW BOM_LAT BOM_LON BOM_TYPE BOM_WIND BOM_PRES BOM_TNUM BOM_CI BOM_RMW BOM_R34_NE BOM_R34_SE BOM_R34_SW BOM_R34_NW BOM_R50_NE BOM_R50_SE BOM_R50_SW BOM_R50_NW BOM_R64_NE BOM_R64_SE BOM_R64_SW BOM_R64_NW BOM_ROCI BOM_POCI BOM_EYE BOM_POS_METHOD BOM_PRES_METHOD NADI_LAT NADI_LON NADI_CAT NADI_WIND NADI_PRES WELLINGTON_LAT WELLINGTON_LON WELLINGTON_WIND WELLINGTON_PRES DS824_LAT DS824_LON DS824_STAGE DS824_WIND DS824_PRES TD9636_LAT TD9636_LON TD9636_STAGE TD9636_WIND TD9636_PRES TD9635_LAT TD9635_LON TD9635_WIND TD9635_PRES TD9635_ROCI NEUMANN_LAT NEUMANN_LON NEUMANN_CLASS NEUMANN_WIND NEUMANN_PRES MLC_LAT MLC_LON MLC_CLASS MLC_WIND MLC_PRES USA_GUST BOM_GUST BOM_GUST_PER REUNION_GUST REUNION_GUST_PER USA_SEAHGT USA_SEARAD_NE USA_SEARAD_SE USA_SEARAD_SW USA_SEARAD_NW STORM_SPEED STORM_DIR
1943337N09139 1943 85 WP MM NOT_NAMED 1943-12-02 12:00:00 NR 8.50000 139.300 main 1108 1076 __________O___ -1 8.50000 139.300 2 8 243
1943337N09139 1943 85 WP MM NOT_NAMED 1943-12-02 15:00:00 NR 8.32023 138.951 main 1076 1051 __________P___ -1 8.32023 138.951 2 8 244
1943337N09139 1943 85 WP MM NOT_NAMED 1943-12-02 18:00:00 NR 8.15232 138.572 main 1051 1016 __________P___ -1 8.15232 138.572 2 9 249
1943337N09139 1943 85 WP MM NOT_NAMED 1943-12-02 21:00:00 NR 8.00828 138.132 main 1013 988 __________P___ -1 8.00828 138.132 2 10 255
1943337N09139 1943 85 WP MM NOT_NAMED 1943-12-03 00:00:00 NR 7.90000 137.600 main 988 965 __________O___ -1 7.90000 137.600 2 12 262
1943337N09139 1943 85 WP MM NOT_NAMED 1943-12-03 03:00:00 NR 7.83668 136.955 main 965 955 __________P___ -1 7.83668 136.955 2 14 267
1943337N09139 1943 85 WP MM NOT_NAMED 1943-12-03 06:00:00 NR 7.81760 136.220 main 954 952 __________P___ -1 7.81760 136.220 2 15 270
1943337N09139 1943 85 WP MM NOT_NAMED 1943-12-03 09:00:00 NR 7.83966 135.424 main 950 882 __________P___ -1 7.83966 135.424 2 16 273
1943337N09139 1943 85 WP MM NOT_NAMED 1943-12-03 12:00:00 NR 7.90000 134.600 main 882 794 __________O___ -1 7.90000 134.600 2 16 275
1943337N09139 1943 85 WP MM NOT_NAMED 1943-12-03 15:00:00 NR 7.98093 133.776 main 794 706 __________P___ -1 7.98093 133.776 2 17 277
1943337N09139 1943 85 WP MM NOT_NAMED 1943-12-03 18:00:00 NR 8.09754 132.935 main 695 608 __________P___ -1 8.09754 132.935 2 17 279
1943337N09139 1943 85 WP MM NOT_NAMED 1943-12-03 21:00:00 NR 8.24033 132.101 main 608 523 __________P___ -1 8.24033 132.101 2 16 281
1943337N09139 1943 85 WP MM NOT_NAMED 1943-12-04 00:00:00 NR 8.40000 131.300 main 523 449 __________O___ -1 8.40000 131.300 2 15 281
1943337N09139 1943 85 WP MM NOT_NAMED 1943-12-04 03:00:00 NR 8.53944 130.576 main 449 380 __________P___ -1 8.53944 130.576 2 14 282
1943337N09139 1943 85 WP MM NOT_NAMED 1943-12-04 06:00:00 NR 8.69631 129.884 main 380 315 __________P___ -1 8.69631 129.884 2 14 284
1943337N09139 1943 85 WP MM NOT_NAMED 1943-12-04 09:00:00 NR 8.88007 129.201 main 315 244 __________P___ -1 8.88007 129.201 2 14 286
1943337N09139 1943 85 WP MM NOT_NAMED 1943-12-04 12:00:00 NR 9.10000 128.500 main 244 174 __________O___ -1 9.10000 128.500 2 16 289
1943337N09139 1943 85 WP MM NOT_NAMED 1943-12-04 15:00:00 NR 9.37242 127.711 main 166 95 __________P___ -1 9.37242 127.711 2 17 290
1943337N09139 1943 85 WP MM NOT_NAMED 1943-12-04 18:00:00 NR 9.67793 126.906 main 95 49 __________P___ -1 9.67793 126.906 2 17 292
1943337N09139 1943 85 WP MM NOT_NAMED 1943-12-04 21:00:00 NR 9.99439 126.123 main 57 10 __________P___ -1 9.99439 126.123 2 16 293
1943337N09139 1943 85 WP MM NOT_NAMED 1943-12-05 00:00:00 NR 10.3000 125.400 main 10 0 __________O___ -1 10.3000 125.400 2 14 294
1943337N09139 1943 85 WP MM NOT_NAMED 1943-12-05 03:00:00 NR 10.5876 124.797 main 0 0 __________P___ -1 10.5876 124.797 2 13 296
1943337N09139 1943 85 WP MM NOT_NAMED 1943-12-05 06:00:00 NR 10.8585 124.255 main 10 0 __________P___ -1 10.8585 124.255 2 12 296
1943337N09139 1943 85 WP MM NOT_NAMED 1943-12-05 09:00:00 NR 11.1002 123.735 main 24 10 __________P___ -1 11.1002 123.735 2 11 293
1943337N09139 1943 85 WP MM NOT_NAMED 1943-12-05 12:00:00 NR 11.3000 123.200 main 10 0 __________O___ -1 11.3000 123.200 2 12 290
1943337N09139 1943 85 WP MM NOT_NAMED 1943-12-05 15:00:00 NR 11.5168 122.540 main 0 0 __________P___ -1 11.5168 122.540 2 14 286
1943337N09139 1943 85 WP MM NOT_NAMED 1943-12-05 18:00:00 NR 11.6808 121.868 main 15 11 __________P___ -1 11.6808 121.868 2 13 281
1943337N09139 1943 85 WP MM NOT_NAMED 1943-12-05 21:00:00 NR 11.7543 121.237 main 44 44 __________P___ -1 11.7543 121.237 2 11 271
1943337N09139 1943 85 WP MM NOT_NAMED 1943-12-06 00:00:00 NR 11.7000 120.700 main 70 70 __________O___ -1 11.7000 120.700 2 9 253
1943337N09139 1943 85 WP MM NOT_NAMED 1943-12-06 03:00:00 NR 11.4826 120.332 main 79 54 __________P___ -1 11.4826 120.332 2 8 228
1943337N09139 1943 85 WP MM NOT_NAMED 1943-12-06 06:00:00 NR 11.1414 120.060 main 55 21 __________P___ -1 11.1414 120.060 2 9 213
1943337N09139 1943 85 WP MM NOT_NAMED 1943-12-06 09:00:00 NR 10.7297 119.832 main 21 0 __________P___ -1 10.7297 119.832 2 10 208
1943337N09139 1943 85 WP MM NOT_NAMED 1943-12-06 12:00:00 NR 10.3000 119.600 main 11 11 __________O___ -1 10.3000 119.600 2 10 211
1943337N09139 1943 85 WP MM NOT_NAMED 1943-12-06 15:00:00 NR 9.86308 119.297 main 24 24 __________P___ -1 9.86308 119.297 2 11 215
1943337N09139 1943 85 WP MM NOT_NAMED 1943-12-06 18:00:00 NR 9.42991 118.980 main 39 31 __________P___ -1 9.42991 118.980 2 10 218
1943337N09139 1943 85 WP MM NOT_NAMED 1943-12-06 21:00:00 NR 9.05679 118.647 main 31 31 __________P___ -1 9.05679 118.647 2 9 227
1943337N09139 1943 85 WP MM NOT_NAMED 1943-12-07 00:00:00 NR 8.80000 118.300 main 34 15 __________O___ -1 8.80000 118.300 2 8 244
1943337N09139 1943 85 WP MM NOT_NAMED 1943-12-07 03:00:00 NR 8.70356 117.915 main 15 0 __________P___ -1 8.70356 117.915 2 8 265
1943337N09139 1943 85 WP MM NOT_NAMED 1943-12-07 06:00:00 NR 8.72768 117.521 main 0 0 __________P___ -1 8.72768 117.521 2 8 280
1943337N09139 1943 85 WP MM NOT_NAMED 1943-12-07 09:00:00 NR 8.83794 117.140 main 31 31 __________P___ -1 8.83794 117.140 2 8 291
1943337N09139 1943 85 WP MM NOT_NAMED 1943-12-07 12:00:00 NR 9.00000 116.800 main 70 70 __________O___ -1 9.00000 116.800 2 7 297
1943337N09139 1943 85 WP MM NOT_NAMED 1943-12-07 15:00:00 NR 9.15269 116.508 main 110 110 __________P___ -1 9.15269 116.508 2 6 303
1943337N09139 1943 85 WP MM NOT_NAMED 1943-12-07 18:00:00 NR 9.34736 116.260 main 135 135 __________P___ -1 9.34736 116.260 2 6 313
1943337N09139 1943 85 WP MM NOT_NAMED 1943-12-07 21:00:00 NR 9.56837 116.058 main 172 172 __________P___ -1 9.56837 116.058 2 6 322
1943337N09139 1943 85 WP MM NOT_NAMED 1943-12-08 00:00:00 NR 9.80000 115.900 main 202 202 __________O___ -1 9.80000 115.900 2 5 330
1943337N09139 1943 85 WP MM NOT_NAMED 1943-12-08 03:00:00 NR 10.0177 115.790 main 223 223 __________P___ -1 10.0177 115.790 2 5 338
1943337N09139 1943 85 WP MM NOT_NAMED 1943-12-08 06:00:00 NR 10.2424 115.720 main 245 245 __________P___ -1 10.2424 115.720 2 5 345
1943337N09139 1943 85 WP MM NOT_NAMED 1943-12-08 09:00:00 NR 10.4708 115.665 main 266 266 __________P___ -1 10.4708 115.665 2 5 345
1943337N09139 1943 85 WP MM NOT_NAMED 1943-12-08 12:00:00 NR 10.7000 115.600 main 289 289 __________O___ -1 10.7000 115.600 2 5 344
1943337N09139 1943 85 WP MM NOT_NAMED 1943-12-08 15:00:00 NR 10.9899 115.510 main 321 321 __________P___ -1 10.9899 115.510 2 6 341
1943337N09139 1943 85 WP MM NOT_NAMED 1943-12-08 18:00:00 NR 11.2699 115.403 main 352 352 __________P___ -1 11.2699 115.403 2 6 335
1943337N09139 1943 85 WP MM NOT_NAMED 1943-12-08 21:00:00 NR 11.4899 115.269 main 375 375 __________P___ -1 11.4899 115.269 2 4 318
1943337N09139 1943 85 WP MM NOT_NAMED 1943-12-09 00:00:00 NR 11.6000 115.100 main 399 399 __________O___ -1 11.6000 115.100 2 4 280
1943337N09139 1943 85 WP MM NOT_NAMED 1943-12-09 03:00:00 NR 11.5604 114.869 main 414 414 __________P___ -1 11.5604 114.869 2 5 248
1943337N09139 1943 85 WP MM NOT_NAMED 1943-12-09 06:00:00 NR 11.4077 114.607 main 423 423 __________P___ -1 11.4077 114.607 2 6 233
1943337N09139 1943 85 WP MM NOT_NAMED 1943-12-09 09:00:00 NR 11.1761 114.341 main 435 428 __________P___ -1 11.1761 114.341 2 7 224
1943337N09139 1943 85 WP MM NOT_NAMED 1943-12-09 12:00:00 NR 10.9000 114.100 main 434 428 __________O___ -1 10.9000 114.100 2 7 217
1943337N09139 1943 85 WP MM NOT_NAMED 1943-12-09 15:00:00 NR 10.6087 113.904 main 435 428 __________P___ -1 10.6087 113.904 2 7 210
1943337N09139 1943 85 WP MM NOT_NAMED 1943-12-09 18:00:00 NR 10.3099 113.748 main 438 429 __________P___ -1 10.3099 113.748 2 7 205
1943337N09139 1943 85 WP MM NOT_NAMED 1943-12-09 21:00:00 NR 10.0062 113.617 main 435 428 __________P___ -1 10.0062 113.617 2 7 202
1943337N09139 1943 85 WP MM NOT_NAMED 1943-12-10 00:00:00 NR 9.70000 113.500 main 435 __________O___ -1 9.70000 113.500 2 7 201

デジタル台風データ・検索

IBTrACS Databaseについて

本データベースは、米国NOAAが公開する1842年以降の世界の熱帯低気圧のベストトラックデータアーカイブInternational Best Track Archive for Climate Stewardship (IBTrACS)を、ウェブで閲覧しやすい形式に変換したものです。

最終更新日:2021-10-08